Abbeville, South Carolina
Current Conditions -  °F | °C
As of 4:56 PM on Friday 31 Oct 2014 (Local Time) from KGRD Reporting Station
Overcast Overcast  
Wind Chill: 63°   Ceiling: 9000
Heat Index: 63°   Visibility: 10mi
Dew Point: 47°   Wind: 3mph
Humidity: 56%   Direction: 330°NNW
Pressure: 29.81"   Gusts: NA
Location:  34.18°N, 82.38°W
Report Text: KGRD 312056Z AUTO 33003KT 10SM SCT070 OVC090 17/08 A2981 RMK AO2 RAB10E39 SLP091 P0000 60000 T01720083 56019
Loading
Personal Weather Stations






























Interactive Weather Map
Tropical Storm Tracking
New forecast layout! Learn more

10-Day Weather Forecast

Advertisements
Track Severe Weather on mobile